Terminal Aerodrome Forecast
Issued by NWS Norman, OK

Home | Current Version | Previous Version | Text Only | Print | Product List | Glossary On
Versions: 1 2 3 4 5 6 7 8 9 10 11 12 13 14 15 16
000
FTUS44 KOUN 312334
TAFSPS
TAF
KSPS 312334Z 0100/0124 16009KT P6SM SCT050 BKN100
      TEMPO 0101/0105 4SM -TSRA BKN040CB BKN100
     FM010500 13004KT P6SM BKN025
      TEMPO 0105/0109 3SM -TSRA OVC025CB
     FM010900 03006KT 4SM -TSRA BKN025CB
     FM011500 05008KT P6SM SCT025 BKN050=

USA.gov is the U.S. government's official web portal to all federal, state and local government web resources and services.